sensor_id;sensor_type;location;lat;lon;timestamp;P1;P4;P2;P0;N10;N4;N25;N1;N05;TS
78736;SPS30;68349;52.124;5.404;2023-09-19T00:00:44;3.30;3.13;2.80;2.26;18.10;18.08;17.99;17.50;14.55;0.65
78736;SPS30;68349;52.124;5.404;2023-09-19T00:03:14;2.97;2.82;2.52;2.03;16.27;16.25;16.17;15.73;13.07;0.63
78736;SPS30;68349;52.124;5.404;2023-09-19T00:05:41;3.34;3.17;2.84;2.30;18.41;18.38;18.29;17.81;14.82;0.64
78736;SPS30;68349;52.124;5.404;2023-09-19T00:08:12;3.14;3.00;2.70;2.21;17.69;17.67;17.59;17.16;14.33;0.64
78736;SPS30;68349;52.124;5.404;2023-09-19T00:10:40;3.46;3.32;3.03;2.54;20.33;20.31;20.23;19.80;16.66;0.64
78736;SPS30;68349;52.124;5.404;2023-09-19T00:13:08;3.51;3.35;3.03;2.49;19.91;19.89;19.80;19.32;16.15;0.66
78736;SPS30;68349;52.124;5.404;2023-09-19T00:15:41;3.00;2.87;2.60;2.15;17.21;17.19;17.11;16.72;14.01;0.64
78736;SPS30;68349;52.124;5.404;2023-09-19T00:18:15;2.94;2.81;2.54;2.10;16.77;16.75;16.67;16.28;13.63;0.65
78736;SPS30;68349;52.124;5.404;2023-09-19T00:20:43;2.93;2.80;2.54;2.10;16.83;16.81;16.74;16.36;13.70;0.65
78736;SPS30;68349;52.124;5.404;2023-09-19T00:23:14;3.25;3.10;2.79;2.28;18.24;18.22;18.13;17.68;14.76;0.65
78736;SPS30;68349;52.124;5.404;2023-09-19T00:25:40;3.23;3.08;2.77;2.26;18.07;18.05;17.96;17.51;14.60;0.65
78736;SPS30;68349;52.124;5.404;2023-09-19T00:28:08;3.14;2.99;2.70;2.21;17.71;17.69;17.61;17.18;14.36;0.66
78736;SPS30;68349;52.124;5.404;2023-09-19T00:30:36;3.31;3.13;2.78;2.22;17.81;17.78;17.69;17.18;14.24;0.67
78736;SPS30;68349;52.124;5.404;2023-09-19T00:33:05;3.17;3.01;2.68;2.15;17.24;17.22;17.13;16.66;13.83;0.67
78736;SPS30;68349;52.124;5.404;2023-09-19T00:35:34;3.03;2.91;2.68;2.26;18.10;18.08;18.02;17.66;14.90;0.62
78736;SPS30;68349;52.124;5.404;2023-09-19T00:38:03;2.93;2.84;2.63;2.26;18.09;18.08;18.02;17.71;15.01;0.62
78736;SPS30;68349;52.124;5.404;2023-09-19T00:40:30;3.16;3.03;2.75;2.29;18.32;18.30;18.23;17.82;14.96;0.64
78736;SPS30;68349;52.124;5.404;2023-09-19T00:42:57;2.98;2.86;2.63;2.21;17.71;17.70;17.63;17.27;14.56;0.62
78736;SPS30;68349;52.124;5.404;2023-09-19T00:45:27;2.86;2.77;2.57;2.21;17.65;17.64;17.58;17.28;14.64;0.61
78736;SPS30;68349;52.124;5.404;2023-09-19T00:47:55;2.83;2.74;2.56;2.21;17.68;17.66;17.61;17.32;14.72;0.61
78736;SPS30;68349;52.124;5.404;2023-09-19T00:50:24;2.70;2.63;2.48;2.18;17.41;17.40;17.36;17.11;14.60;0.59
78736;SPS30;68349;52.124;5.404;2023-09-19T00:52:55;2.68;2.60;2.45;2.14;17.09;17.08;17.04;16.78;14.30;0.58
78736;SPS30;68349;52.124;5.404;2023-09-19T00:55:23;2.82;2.74;2.57;2.23;17.83;17.81;17.76;17.48;14.87;0.60
78736;SPS30;68349;52.124;5.404;2023-09-19T00:57:51;3.13;3.02;2.79;2.37;18.97;18.95;18.89;18.53;15.67;0.64
78736;SPS30;68349;52.124;5.404;2023-09-19T01:00:19;2.80;2.71;2.52;2.16;17.27;17.26;17.20;16.90;14.33;0.62
78736;SPS30;68349;52.124;5.404;2023-09-19T01:02:47;2.84;2.74;2.52;2.14;17.14;17.13;17.07;16.74;14.15;0.63
78736;SPS30;68349;52.124;5.404;2023-09-19T01:05:15;2.63;2.55;2.39;2.08;16.63;16.61;16.57;16.31;13.87;0.59
78736;SPS30;68349;52.124;5.404;2023-09-19T01:07:42;2.98;2.90;2.75;2.42;19.31;19.30;19.25;18.99;16.22;0.58
78736;SPS30;68349;52.124;5.404;2023-09-19T01:10:12;2.72;2.64;2.49;2.18;17.41;17.40;17.36;17.11;14.59;0.59
78736;SPS30;68349;52.124;5.404;2023-09-19T01:21:05;2.77;2.72;2.61;2.36;18.82;18.81;18.78;18.58;15.98;0.55
78736;SPS30;68349;52.124;5.404;2023-09-19T01:29:39;2.91;2.85;2.73;2.44;19.47;19.46;19.42;19.20;16.47;0.56
78736;SPS30;68349;52.124;5.404;2023-09-19T01:32:11;2.92;2.87;2.77;2.51;20.02;20.01;19.98;19.78;17.03;0.55
78736;SPS30;68349;52.124;5.404;2023-09-19T01:34:46;3.08;3.01;2.88;2.58;20.61;20.60;20.56;20.33;17.44;0.57
78736;SPS30;68349;52.124;5.404;2023-09-19T01:37:17;3.08;3.02;2.91;2.62;20.97;20.96;20.92;20.71;17.81;0.56
78736;SPS30;68349;52.124;5.404;2023-09-19T01:39:47;2.98;2.93;2.84;2.58;20.62;20.61;20.58;20.39;17.57;0.55
78736;SPS30;68349;52.124;5.404;2023-09-19T01:42:21;3.47;3.38;3.21;2.83;22.63;22.61;22.56;22.26;19.03;0.60
78736;SPS30;68349;52.124;5.404;2023-09-19T01:50:32;3.66;3.59;3.46;3.11;24.85;24.84;24.80;24.54;21.10;0.56
78736;SPS30;68349;52.124;5.404;2023-09-19T01:53:10;3.52;3.45;3.30;2.95;23.57;23.56;23.52;23.25;19.95;0.60
78736;SPS30;68349;52.124;5.404;2023-09-19T01:55:59;3.70;3.62;3.44;3.06;24.46;24.45;24.40;24.10;20.64;0.60
78736;SPS30;68349;52.124;5.404;2023-09-19T01:58:33;3.62;3.54;3.39;3.03;24.22;24.21;24.16;23.88;20.49;0.57
78736;SPS30;68349;52.124;5.404;2023-09-19T02:01:05;3.42;3.36;3.24;2.91;23.29;23.28;23.24;23.00;19.77;0.58
78736;SPS30;68349;52.124;5.404;2023-09-19T02:03:37;3.88;3.78;3.59;3.17;25.33;25.31;25.25;24.92;21.31;0.58
78736;SPS30;68349;52.124;5.404;2023-09-19T02:06:06;3.50;3.43;3.28;2.94;23.50;23.49;23.45;23.18;19.90;0.57
78736;SPS30;68349;52.124;5.404;2023-09-19T02:08:37;3.64;3.57;3.44;3.10;24.76;24.75;24.71;24.45;21.03;0.57
78736;SPS30;68349;52.124;5.404;2023-09-19T02:11:04;3.35;3.27;3.11;2.76;22.07;22.06;22.01;21.73;18.60;0.57
78736;SPS30;68349;52.124;5.404;2023-09-19T02:13:32;3.59;3.50;3.30;2.90;23.20;23.18;23.13;22.80;19.46;0.60
78736;SPS30;68349;52.124;5.404;2023-09-19T02:15:59;3.76;3.63;3.36;2.88;23.03;23.01;22.93;22.52;19.08;0.62
78736;SPS30;68349;52.124;5.404;2023-09-19T02:18:26;3.85;3.70;3.39;2.86;22.87;22.85;22.76;22.30;18.79;0.61
78736;SPS30;68349;52.124;5.404;2023-09-19T02:20:54;3.93;3.76;3.41;2.83;22.64;22.61;22.51;22.00;18.44;0.62
78736;SPS30;68349;52.124;5.404;2023-09-19T02:23:22;4.36;4.15;3.73;3.04;24.30;24.27;24.15;23.54;19.62;0.65
78736;SPS30;68349;52.124;5.404;2023-09-19T02:25:58;4.09;3.90;3.53;2.92;23.34;23.32;23.21;22.67;18.98;0.65
78736;SPS30;68349;52.124;5.404;2023-09-19T02:28:28;4.00;3.83;3.47;2.87;22.96;22.93;22.83;22.30;18.68;0.64
78736;SPS30;68349;52.124;5.404;2023-09-19T02:30:59;4.33;4.16;3.79;3.18;25.41;25.38;25.28;24.74;20.81;0.64
78736;SPS30;68349;52.124;5.404;2023-09-19T02:33:26;3.86;3.72;3.41;2.88;23.06;23.04;22.96;22.50;18.97;0.64
78736;SPS30;68349;52.124;5.404;2023-09-19T02:35:56;3.96;3.77;3.37;2.74;21.91;21.88;21.78;21.21;17.66;0.68
78736;SPS30;68349;52.124;5.404;2023-09-19T02:38:27;4.05;3.83;3.38;2.68;21.43;21.40;21.28;20.64;17.05;0.68
78736;SPS30;68349;52.124;5.404;2023-09-19T02:40:55;4.22;4.02;3.61;2.95;23.63;23.60;23.49;22.90;19.11;0.64
78736;SPS30;68349;52.124;5.404;2023-09-19T02:43:22;4.24;4.03;3.59;2.89;23.14;23.12;22.99;22.36;18.57;0.64
78736;SPS30;68349;52.124;5.404;2023-09-19T02:45:50;4.25;4.04;3.62;2.94;23.52;23.49;23.37;22.76;18.95;0.64
78736;SPS30;68349;52.124;5.404;2023-09-19T02:48:17;4.44;4.20;3.71;2.96;23.66;23.63;23.50;22.80;18.86;0.65
78736;SPS30;68349;52.124;5.404;2023-09-19T02:50:45;4.50;4.26;3.75;2.98;23.85;23.81;23.68;22.97;18.97;0.65
78736;SPS30;68349;52.124;5.404;2023-09-19T02:53:12;4.53;4.26;3.72;2.90;23.22;23.19;23.04;22.28;18.29;0.66
78736;SPS30;68349;52.124;5.404;2023-09-19T02:55:39;5.13;4.79;4.10;3.08;24.69;24.65;24.46;23.51;19.04;0.70
78736;SPS30;68349;52.124;5.404;2023-09-19T02:58:09;5.22;4.84;4.06;2.96;23.72;23.67;23.46;22.41;17.92;0.72
78736;SPS30;68349;52.124;5.404;2023-09-19T03:00:37;4.69;4.37;3.73;2.79;22.39;22.34;22.17;21.29;17.22;0.69
78736;SPS30;68349;52.124;5.404;2023-09-19T03:03:04;4.88;4.52;3.80;2.77;22.18;22.13;21.94;20.96;16.76;0.70
78736;SPS30;68349;52.124;5.404;2023-09-19T03:05:32;5.02;4.66;3.93;2.87;23.03;22.98;22.79;21.79;17.45;0.71
78736;SPS30;68349;52.124;5.404;2023-09-19T03:07:59;4.74;4.44;3.82;2.91;23.29;23.25;23.08;22.23;18.08;0.67
78736;SPS30;68349;52.124;5.404;2023-09-19T03:10:29;4.85;4.52;3.85;2.87;22.97;22.93;22.74;21.82;17.61;0.70
78736;SPS30;68349;52.124;5.404;2023-09-19T03:12:57;5.09;4.76;4.08;3.09;24.76;24.71;24.53;23.60;19.16;0.69
78736;SPS30;68349;52.124;5.404;2023-09-19T03:15:28;4.98;4.66;4.01;3.04;24.35;24.31;24.13;23.22;18.87;0.69
78736;SPS30;68349;52.124;5.404;2023-09-19T03:17:55;5.31;4.98;4.31;3.31;26.48;26.43;26.25;25.32;20.67;0.69
78736;SPS30;68349;52.124;5.404;2023-09-19T03:20:22;4.48;4.22;3.70;2.91;23.26;23.23;23.09;22.36;18.40;0.68
78736;SPS30;68349;52.124;5.404;2023-09-19T03:22:49;4.72;4.44;3.86;2.99;23.99;23.95;23.79;22.99;18.84;0.69
78736;SPS30;68349;52.124;5.404;2023-09-19T03:25:16;4.47;4.19;3.62;2.77;22.22;22.18;22.03;21.24;17.32;0.70
78736;SPS30;68349;52.124;5.404;2023-09-19T03:27:44;5.12;4.80;4.14;3.16;25.32;25.28;25.10;24.19;19.70;0.70
78736;SPS30;68349;52.124;5.404;2023-09-19T03:30:10;5.10;4.75;4.02;2.97;23.83;23.78;23.58;22.59;18.18;0.71
78736;SPS30;68349;52.124;5.404;2023-09-19T03:32:46;4.51;4.23;3.66;2.81;22.52;22.49;22.33;21.54;17.59;0.68
78736;SPS30;68349;52.124;5.404;2023-09-19T03:35:17;4.78;4.45;3.80;2.85;22.82;22.77;22.60;21.70;17.55;0.71
78736;SPS30;68349;52.124;5.404;2023-09-19T03:37:44;5.14;4.79;4.06;3.02;24.18;24.13;23.93;22.95;18.49;0.72
78736;SPS30;68349;52.124;5.404;2023-09-19T03:40:11;5.25;4.87;4.10;2.99;23.94;23.89;23.68;22.63;18.10;0.75
78736;SPS30;68349;52.124;5.404;2023-09-19T03:42:41;5.59;5.16;4.28;3.05;24.44;24.38;24.15;22.97;18.19;0.76
78736;SPS30;68349;52.124;5.404;2023-09-19T03:45:08;4.74;4.42;3.77;2.83;22.67;22.62;22.45;21.56;17.44;0.70
78736;SPS30;68349;52.124;5.404;2023-09-19T03:47:39;4.91;4.57;3.88;2.89;23.15;23.11;22.92;21.99;17.73;0.72
78736;SPS30;68349;52.124;5.404;2023-09-19T03:50:07;5.22;4.84;4.06;2.95;23.70;23.65;23.44;22.39;17.89;0.73
78736;SPS30;68349;52.124;5.404;2023-09-19T03:52:37;4.94;4.60;3.90;2.90;23.23;23.19;23.00;22.06;17.78;0.72
78736;SPS30;68349;52.124;5.404;2023-09-19T03:55:04;4.73;4.43;3.82;2.91;23.34;23.30;23.13;22.28;18.14;0.68
78736;SPS30;68349;52.124;5.404;2023-09-19T03:57:30;4.25;4.01;3.51;2.74;21.97;21.94;21.81;21.10;17.35;0.66
78736;SPS30;68349;52.124;5.404;2023-09-19T03:59:57;5.06;4.71;3.99;2.96;23.70;23.66;23.47;22.49;18.10;0.71
78736;SPS30;68349;52.124;5.404;2023-09-19T04:02:24;5.01;4.67;3.98;2.98;23.86;23.82;23.63;22.69;18.33;0.72
78736;SPS30;68349;52.124;5.404;2023-09-19T04:04:51;4.68;4.38;3.75;2.83;22.70;22.66;22.49;21.63;17.55;0.72
78736;SPS30;68349;52.124;5.404;2023-09-19T04:07:19;5.06;4.71;3.99;2.95;23.68;23.64;23.44;22.47;18.09;0.73
78736;SPS30;68349;52.124;5.404;2023-09-19T04:09:49;4.72;4.41;3.78;2.86;22.91;22.86;22.69;21.83;17.71;0.70
78736;SPS30;68349;52.124;5.404;2023-09-19T04:12:15;4.41;4.12;3.55;2.69;21.58;21.54;21.38;20.58;16.73;0.72
78736;SPS30;68349;52.124;5.404;2023-09-19T04:14:45;5.11;4.76;4.03;2.99;23.97;23.92;23.73;22.74;18.31;0.74
78736;SPS30;68349;52.124;5.404;2023-09-19T04:17:12;5.49;5.09;4.27;3.11;24.92;24.87;24.65;23.54;18.81;0.74
78736;SPS30;68349;52.124;5.404;2023-09-19T04:19:39;5.44;5.04;4.20;3.02;24.23;24.17;23.95;22.82;18.15;0.75
78736;SPS30;68349;52.124;5.404;2023-09-19T04:22:07;4.86;4.53;3.86;2.88;23.12;23.07;22.89;21.97;17.75;0.74
78736;SPS30;68349;52.124;5.404;2023-09-19T04:24:35;4.92;4.56;3.85;2.82;22.60;22.55;22.36;21.38;17.14;0.73
78736;SPS30;68349;52.124;5.404;2023-09-19T04:27:02;5.01;4.61;3.80;2.67;21.45;21.40;21.18;20.10;15.83;0.77
78736;SPS30;68349;52.124;5.404;2023-09-19T04:29:29;5.44;5.02;4.16;2.95;23.70;23.65;23.42;22.26;17.61;0.75
78736;SPS30;68349;52.124;5.404;2023-09-19T04:31:56;5.44;5.03;4.19;3.00;24.08;24.03;23.80;22.67;18.00;0.75
78736;SPS30;68349;52.124;5.404;2023-09-19T04:34:26;4.91;4.57;3.88;2.87;23.00;22.96;22.77;21.82;17.56;0.73
78736;SPS30;68349;52.124;5.404;2023-09-19T04:36:53;4.58;4.30;3.73;2.87;22.98;22.94;22.79;21.99;17.96;0.71
78736;SPS30;68349;52.124;5.404;2023-09-19T04:39:20;5.73;5.30;4.44;3.20;25.70;25.65;25.41;24.24;19.32;0.76
78736;SPS30;68349;52.124;5.404;2023-09-19T04:41:47;5.91;5.42;4.44;3.06;24.60;24.54;24.27;22.96;17.95;0.78
78736;SPS30;68349;52.124;5.404;2023-09-19T04:44:14;5.57;5.12;4.20;2.91;23.39;23.33;23.08;21.85;17.12;0.77
78736;SPS30;68349;52.124;5.404;2023-09-19T04:46:42;4.96;4.61;3.91;2.90;23.24;23.20;23.01;22.05;17.76;0.72
78736;SPS30;68349;52.124;5.404;2023-09-19T04:49:09;4.95;4.62;3.95;2.97;23.77;23.73;23.55;22.63;18.32;0.73
78736;SPS30;68349;52.124;5.404;2023-09-19T04:51:35;4.86;4.51;3.79;2.76;22.12;22.07;21.88;20.90;16.72;0.78
78736;SPS30;68349;52.124;5.404;2023-09-19T04:54:03;5.24;4.85;4.07;2.96;23.75;23.70;23.49;22.44;17.93;0.77
78736;SPS30;68349;52.124;5.404;2023-09-19T04:56:30;5.46;5.06;4.23;3.05;24.47;24.42;24.20;23.08;18.38;0.76
78736;SPS30;68349;52.124;5.404;2023-09-19T04:58:58;5.32;4.93;4.12;2.96;23.78;23.73;23.51;22.41;17.84;0.76
78736;SPS30;68349;52.124;5.404;2023-09-19T05:01:26;5.79;5.34;4.44;3.16;25.37;25.31;25.07;23.85;18.90;0.78
78736;SPS30;68349;52.124;5.404;2023-09-19T05:03:53;5.30;4.91;4.11;2.97;23.80;23.75;23.53;22.45;17.90;0.77
78736;SPS30;68349;52.124;5.404;2023-09-19T05:06:20;5.70;5.27;4.39;3.15;25.28;25.23;24.99;23.81;18.93;0.77
78736;SPS30;68349;52.124;5.404;2023-09-19T05:08:47;5.47;5.10;4.35;3.26;26.13;26.08;25.88;24.85;20.09;0.72
78736;SPS30;68349;52.124;5.404;2023-09-19T05:11:19;4.84;4.52;3.86;2.90;23.28;23.23;23.06;22.16;17.95;0.73
78736;SPS30;68349;52.124;5.404;2023-09-19T05:13:50;4.72;4.41;3.77;2.84;22.79;22.75;22.58;21.71;17.59;0.70
78736;SPS30;68349;52.124;5.404;2023-09-19T05:16:19;4.91;4.58;3.92;2.94;23.58;23.54;23.36;22.44;18.17;0.71
78736;SPS30;68349;52.124;5.404;2023-09-19T05:18:46;4.94;4.60;3.90;2.88;23.12;23.07;22.88;21.93;17.65;0.74
78736;SPS30;68349;52.124;5.404;2023-09-19T05:21:12;4.62;4.31;3.66;2.73;21.90;21.86;21.69;20.81;16.80;0.74
78736;SPS30;68349;52.124;5.404;2023-09-19T05:23:39;4.61;4.33;3.76;2.91;23.31;23.28;23.12;22.33;18.28;0.71
78736;SPS30;68349;52.124;5.404;2023-09-19T05:26:06;4.65;4.36;3.77;2.89;23.19;23.15;22.99;22.18;18.10;0.71
78736;SPS30;68349;52.124;5.404;2023-09-19T05:28:33;4.84;4.51;3.83;2.84;22.76;22.72;22.53;21.60;17.40;0.72
78736;SPS30;68349;52.124;5.404;2023-09-19T05:31:01;4.55;4.27;3.70;2.84;22.79;22.75;22.59;21.80;17.80;0.69
78736;SPS30;68349;52.124;5.404;2023-09-19T05:33:29;4.41;4.13;3.58;2.75;22.00;21.96;21.81;21.04;17.18;0.70
78736;SPS30;68349;52.124;5.404;2023-09-19T05:35:58;5.39;5.04;4.33;3.28;26.28;26.23;26.04;25.05;20.35;0.71
78736;SPS30;68349;52.124;5.404;2023-09-19T05:38:24;4.73;4.41;3.77;2.83;22.69;22.65;22.48;21.60;17.48;0.73
78736;SPS30;68349;52.124;5.404;2023-09-19T05:40:54;4.85;4.49;3.75;2.70;21.63;21.58;21.38;20.38;16.22;0.78
78736;SPS30;68349;52.124;5.404;2023-09-19T05:43:21;5.07;4.68;3.88;2.76;22.13;22.07;21.86;20.79;16.45;0.78
78736;SPS30;68349;52.124;5.404;2023-09-19T05:45:48;4.68;4.33;3.63;2.63;21.06;21.02;20.83;19.87;15.85;0.77
78736;SPS30;68349;52.124;5.404;2023-09-19T05:48:15;4.54;4.23;3.58;2.65;21.25;21.21;21.04;20.16;16.23;0.74
78736;SPS30;68349;52.124;5.404;2023-09-19T05:50:43;4.87;4.51;3.78;2.73;21.89;21.84;21.64;20.65;16.46;0.74
78736;SPS30;68349;52.124;5.404;2023-09-19T05:53:13;5.51;5.06;4.14;2.87;23.05;23.00;22.75;21.53;16.86;0.78
78736;SPS30;68349;52.124;5.404;2023-09-19T05:55:41;5.68;5.22;4.27;2.95;23.68;23.62;23.36;22.10;17.28;0.79
78736;SPS30;68349;52.124;5.404;2023-09-19T05:58:08;5.26;4.83;3.94;2.72;21.80;21.75;21.51;20.33;15.88;0.79
78736;SPS30;68349;52.124;5.404;2023-09-19T06:00:36;5.30;4.87;3.98;2.75;22.11;22.05;21.82;20.64;16.14;0.77
78736;SPS30;68349;52.124;5.404;2023-09-19T06:03:05;5.55;5.11;4.22;2.96;23.77;23.71;23.47;22.27;17.54;0.76
78736;SPS30;68349;52.124;5.404;2023-09-19T06:05:32;5.33;4.94;4.13;2.99;23.97;23.91;23.70;22.61;18.03;0.74
78736;SPS30;68349;52.124;5.404;2023-09-19T06:07:59;5.56;5.13;4.24;3.00;24.07;24.02;23.78;22.59;17.84;0.75
78736;SPS30;68349;52.124;5.404;2023-09-19T06:10:27;5.75;5.27;4.28;2.93;23.51;23.45;23.19;21.88;17.02;0.78
78736;SPS30;68349;52.124;5.404;2023-09-19T06:12:55;5.34;4.92;4.05;2.84;22.76;22.71;22.47;21.31;16.76;0.77
78736;SPS30;68349;52.124;5.404;2023-09-19T06:15:24;5.11;4.71;3.91;2.77;22.26;22.21;22.00;20.92;16.55;0.78
78736;SPS30;68349;52.124;5.404;2023-09-19T06:17:52;5.24;4.82;3.97;2.78;22.32;22.27;22.04;20.90;16.44;0.79
78736;SPS30;68349;52.124;5.404;2023-09-19T06:20:23;5.61;5.14;4.17;2.83;22.73;22.67;22.41;21.12;16.39;0.81
78736;SPS30;68349;52.124;5.404;2023-09-19T06:22:51;6.03;5.52;4.50;3.08;24.72;24.65;24.38;23.01;17.92;0.81
78736;SPS30;68349;52.124;5.404;2023-09-19T06:25:19;4.92;4.56;3.81;2.76;22.12;22.07;21.87;20.86;16.63;0.76
78736;SPS30;68349;52.124;5.404;2023-09-19T06:27:47;5.09;4.70;3.90;2.78;22.27;22.22;22.00;20.93;16.57;0.76
78736;SPS30;68349;52.124;5.404;2023-09-19T06:30:15;5.27;4.88;4.08;2.94;23.62;23.57;23.35;22.27;17.74;0.75
78736;SPS30;68349;52.124;5.404;2023-09-19T06:32:42;4.62;4.28;3.60;2.62;21.00;20.96;20.77;19.84;15.86;0.74
78736;SPS30;68349;52.124;5.404;2023-09-19T06:35:14;4.99;4.64;3.91;2.88;23.06;23.01;22.82;21.84;17.53;0.71
78736;SPS30;68349;52.124;5.404;2023-09-19T06:37:42;5.18;4.79;4.00;2.88;23.10;23.05;22.84;21.77;17.32;0.74
78736;SPS30;68349;52.124;5.404;2023-09-19T06:40:10;5.87;5.40;4.42;3.07;24.64;24.58;24.32;23.02;18.04;0.77
78736;SPS30;68349;52.124;5.404;2023-09-19T06:42:41;5.46;5.01;4.10;2.83;22.69;22.63;22.38;21.16;16.53;0.76
78736;SPS30;68349;52.124;5.404;2023-09-19T06:45:12;5.16;4.77;3.98;2.86;22.91;22.86;22.65;21.58;17.15;0.73
78736;SPS30;68349;52.124;5.404;2023-09-19T06:47:40;5.55;5.12;4.23;2.98;23.93;23.87;23.63;22.44;17.70;0.76
78736;SPS30;68349;52.124;5.404;2023-09-19T06:50:07;5.10;4.70;3.89;2.75;22.05;22.00;21.78;20.69;16.33;0.75
78736;SPS30;68349;52.124;5.404;2023-09-19T06:52:40;4.93;4.59;3.88;2.87;22.98;22.93;22.74;21.78;17.51;0.73
78736;SPS30;68349;52.124;5.404;2023-09-19T06:55:08;4.93;4.56;3.83;2.78;22.28;22.23;22.04;21.04;16.80;0.74
78736;SPS30;68349;52.124;5.404;2023-09-19T06:57:36;5.09;4.71;3.92;2.82;22.59;22.54;22.33;21.28;16.91;0.76
78736;SPS30;68349;52.124;5.404;2023-09-19T07:00:03;5.87;5.39;4.39;3.02;24.24;24.18;23.91;22.59;17.62;0.80
78736;SPS30;68349;52.124;5.404;2023-09-19T07:02:35;5.70;5.19;4.17;2.77;22.25;22.19;21.92;20.56;15.78;0.82
78736;SPS30;68349;52.124;5.404;2023-09-19T07:05:02;5.96;5.43;4.36;2.90;23.27;23.20;22.91;21.49;16.50;0.83
78736;SPS30;68349;52.124;5.404;2023-09-19T07:07:29;6.49;5.91;4.72;3.11;25.01;24.93;24.62;23.05;17.62;0.82
78736;SPS30;68349;52.124;5.404;2023-09-19T07:09:56;5.59;5.11;4.13;2.79;22.39;22.33;22.07;20.77;16.06;0.80
78736;SPS30;68349;52.124;5.404;2023-09-19T07:12:23;5.58;5.12;4.18;2.88;23.12;23.06;22.81;21.55;16.83;0.79
78736;SPS30;68349;52.124;5.404;2023-09-19T07:14:49;5.48;5.03;4.11;2.84;22.77;22.71;22.47;21.24;16.60;0.80
78736;SPS30;68349;52.124;5.404;2023-09-19T07:17:16;5.15;4.73;3.88;2.70;21.69;21.64;21.41;20.28;15.90;0.78
78736;SPS30;68349;52.124;5.404;2023-09-19T07:19:45;5.48;5.02;4.08;2.78;22.35;22.29;22.04;20.79;16.16;0.81
78736;SPS30;68349;52.124;5.404;2023-09-19T07:22:14;5.35;4.92;4.04;2.81;22.57;22.52;22.28;21.11;16.56;0.78
78736;SPS30;68349;52.124;5.404;2023-09-19T07:24:41;5.34;4.92;4.05;2.85;22.86;22.80;22.57;21.42;16.87;0.77
78736;SPS30;68349;52.124;5.404;2023-09-19T07:27:08;5.55;5.08;4.12;2.80;22.48;22.42;22.16;20.89;16.20;0.79
78736;SPS30;68349;52.124;5.404;2023-09-19T07:29:35;5.44;4.97;4.00;2.69;21.59;21.53;21.27;19.99;15.42;0.80
78736;SPS30;68349;52.124;5.404;2023-09-19T07:32:01;5.96;5.45;4.41;2.99;23.99;23.92;23.64;22.27;17.24;0.82
78736;SPS30;68349;52.124;5.404;2023-09-19T07:34:28;5.93;5.39;4.31;2.84;22.78;22.72;22.43;20.99;16.04;0.84
78736;SPS30;68349;52.124;5.404;2023-09-19T07:36:55;6.22;5.64;4.45;2.84;22.86;22.78;22.46;20.90;15.73;0.86
78736;SPS30;68349;52.124;5.404;2023-09-19T07:39:22;5.89;5.38;4.34;2.92;23.42;23.35;23.07;21.70;16.75;0.81
78736;SPS30;68349;52.124;5.404;2023-09-19T07:41:49;5.87;5.36;4.32;2.90;23.33;23.26;22.98;21.61;16.68;0.80
78736;SPS30;68349;52.124;5.404;2023-09-19T07:44:36;6.32;5.73;4.51;2.88;23.12;23.05;22.72;21.12;15.88;0.84
78736;SPS30;68349;52.124;5.404;2023-09-19T07:47:03;6.13;5.56;4.38;2.81;22.57;22.50;22.19;20.65;15.56;0.83
78736;SPS30;68349;52.124;5.404;2023-09-19T07:49:30;6.07;5.52;4.40;2.88;23.11;23.04;22.74;21.26;16.19;0.82
78736;SPS30;68349;52.124;5.404;2023-09-19T07:51:56;6.21;5.65;4.49;2.92;23.47;23.40;23.09;21.56;16.38;0.82
78736;SPS30;68349;52.124;5.404;2023-09-19T07:54:23;6.02;5.48;4.38;2.87;23.09;23.02;22.72;21.26;16.23;0.80
78736;SPS30;68349;52.124;5.404;2023-09-19T07:56:50;5.97;5.44;4.35;2.88;23.13;23.07;22.78;21.35;16.35;0.79
78736;SPS30;68349;52.124;5.404;2023-09-19T07:59:17;5.67;5.16;4.12;2.70;21.73;21.67;21.39;20.02;15.28;0.80
78736;SPS30;68349;52.124;5.404;2023-09-19T08:01:44;5.93;5.37;4.23;2.70;21.69;21.62;21.32;19.82;14.90;0.83
78736;SPS30;68349;52.124;5.404;2023-09-19T08:04:10;5.67;5.15;4.08;2.64;21.20;21.13;20.84;19.44;14.71;0.81
78736;SPS30;68349;52.124;5.404;2023-09-19T08:06:37;6.09;5.53;4.40;2.87;23.06;22.99;22.69;21.20;16.12;0.80
78736;SPS30;68349;52.124;5.404;2023-09-19T08:09:05;6.56;5.92;4.62;2.88;23.17;23.09;22.74;21.04;15.63;0.84
78736;SPS30;68349;52.124;5.404;2023-09-19T08:11:35;6.41;5.79;4.53;2.84;22.83;22.76;22.42;20.76;15.46;0.84
78736;SPS30;68349;52.124;5.404;2023-09-19T08:14:02;6.72;6.09;4.79;3.05;24.50;24.42;24.07;22.37;16.79;0.82
78736;SPS30;68349;52.124;5.404;2023-09-19T08:16:29;6.14;5.59;4.47;2.95;23.68;23.61;23.31;21.83;16.68;0.79
78736;SPS30;68349;52.124;5.404;2023-09-19T08:18:56;6.14;5.58;4.46;2.93;23.51;23.44;23.13;21.65;16.52;0.80
78736;SPS30;68349;52.124;5.404;2023-09-19T08:21:22;6.85;6.21;4.92;3.17;25.49;25.41;25.06;23.36;17.66;0.83
78736;SPS30;68349;52.124;5.404;2023-09-19T08:23:50;6.30;5.73;4.57;2.99;24.01;23.94;23.63;22.09;16.83;0.81
78736;SPS30;68349;52.124;5.404;2023-09-19T08:26:17;6.50;5.92;4.73;3.12;25.09;25.02;24.70;23.14;17.70;0.78
78736;SPS30;68349;52.124;5.404;2023-09-19T08:28:43;6.11;5.59;4.53;3.08;24.72;24.65;24.37;22.97;17.81;0.77
78736;SPS30;68349;52.124;5.404;2023-09-19T08:31:10;6.32;5.76;4.62;3.06;24.60;24.53;24.22;22.72;17.42;0.79
78736;SPS30;68349;52.124;5.404;2023-09-19T08:33:37;6.68;6.05;4.78;3.06;24.59;24.52;24.18;22.50;16.95;0.82
78736;SPS30;68349;52.124;5.404;2023-09-19T08:36:05;6.46;5.87;4.65;3.00;24.12;24.04;23.71;22.11;16.73;0.80
78736;SPS30;68349;52.124;5.404;2023-09-19T08:38:34;6.51;5.93;4.76;3.17;25.45;25.38;25.06;23.52;18.06;0.79
78736;SPS30;68349;52.124;5.404;2023-09-19T08:41:05;5.66;5.17;4.17;2.81;22.54;22.48;22.21;20.89;16.13;0.79
78736;SPS30;68349;52.124;5.404;2023-09-19T08:43:34;5.91;5.42;4.42;3.03;24.33;24.27;24.00;22.67;17.66;0.78
78736;SPS30;68349;52.124;5.404;2023-09-19T08:48:31;6.50;5.92;4.75;3.15;25.29;25.22;24.91;23.35;17.91;0.81
78736;SPS30;68349;52.124;5.404;2023-09-19T08:51:07;6.32;5.74;4.57;2.97;23.89;23.82;23.51;21.96;16.69;0.82
78736;SPS30;68349;52.124;5.404;2023-09-19T08:53:50;6.33;5.74;4.55;2.94;23.64;23.56;23.24;21.68;16.41;0.82
78736;SPS30;68349;52.124;5.404;2023-09-19T08:56:20;6.17;5.62;4.50;2.99;23.99;23.93;23.63;22.15;16.99;0.81
78736;SPS30;68349;52.124;5.404;2023-09-19T08:59:06;6.38;5.80;4.63;3.03;24.39;24.31;24.00;22.45;17.12;0.81
78736;SPS30;68349;52.124;5.404;2023-09-19T09:01:34;6.07;5.53;4.43;2.93;23.54;23.47;23.17;21.72;16.64;0.80
78736;SPS30;68349;52.124;5.404;2023-09-19T09:04:02;6.28;5.75;4.66;3.16;25.38;25.31;25.02;23.58;18.28;0.80
78736;SPS30;68349;52.124;5.404;2023-09-19T09:06:29;5.94;5.41;4.33;2.86;22.95;22.88;22.59;21.16;16.19;0.83
78736;SPS30;68349;52.124;5.404;2023-09-19T09:08:56;6.24;5.70;4.57;3.04;24.45;24.38;24.08;22.60;17.36;0.82
78736;SPS30;68349;52.124;5.404;2023-09-19T09:11:23;5.86;5.33;4.24;2.77;22.25;22.18;21.89;20.46;15.56;0.83
78736;SPS30;68349;52.124;5.404;2023-09-19T09:13:54;6.20;5.64;4.48;2.92;23.46;23.39;23.08;21.56;16.38;0.83
78736;SPS30;68349;52.124;5.404;2023-09-19T09:16:21;6.23;5.66;4.51;2.96;23.77;23.70;23.39;21.88;16.68;0.82
78736;SPS30;68349;52.124;5.404;2023-09-19T09:18:49;5.77;5.24;4.15;2.69;21.60;21.53;21.24;19.82;15.01;0.83
78736;SPS30;68349;52.124;5.404;2023-09-19T09:21:24;6.53;5.92;4.66;2.97;23.90;23.83;23.49;21.84;16.43;0.84
78736;SPS30;68349;52.124;5.404;2023-09-19T09:23:51;6.26;5.64;4.37;2.69;21.64;21.56;21.23;19.57;14.42;0.89
78736;SPS30;68349;52.124;5.404;2023-09-19T09:29:05;6.17;5.56;4.32;2.68;21.53;21.46;21.13;19.51;14.43;0.87
78736;SPS30;68349;52.124;5.404;2023-09-19T09:31:32;6.01;5.41;4.19;2.57;20.70;20.63;20.30;18.71;13.77;0.86
78736;SPS30;68349;52.124;5.404;2023-09-19T09:33:59;6.80;6.14;4.77;2.96;23.83;23.75;23.38;21.61;16.00;0.85
78736;SPS30;68349;52.124;5.404;2023-09-19T09:36:33;5.81;5.28;4.20;2.74;22.05;21.98;21.69;20.27;15.43;0.81
78736;SPS30;68349;52.124;5.404;2023-09-19T09:39:03;5.53;5.05;4.06;2.72;21.81;21.75;21.49;20.18;15.53;0.79
78736;SPS30;68349;52.124;5.404;2023-09-19T09:41:43;5.72;5.21;4.16;2.75;22.06;22.00;21.72;20.34;15.56;0.82